Main page
METAR-TAF:

METAR-TAF

Airports :

Banja Luka International Airport

Banja Luka, Bosnia and Herzegovina

latitude: 44-47N, longitude: 017-13E, elevation: 156 m

Current weather observation

The report was made 31 minutes ago, at 00:30 UTC
Wind 2 kt from the South
Temperature 11°C
Humidity 94%
Pressure 1017 hPa
Visibility 10 km or more
no clouds below 1500 m and no cumulonimbus

METAR: LQBK 210030Z 17002KT CAVOK 11/10 Q1017 NOSIG

Time: 03:01 (01:01 UTC)

Forecast

The report was made 2 hours and 1 minutes ago, at 23:00 UTC
Forecast valid from 21 at 00 UTC to 21 at 24 UTC
Wind 4 kt from the North/Northeast
Visibility 10 km or more
no clouds below 1500 m and no cumulonimbus
Probability 40% :
Temporary
from 21 at 14 UTC to 21 at 20 UTC
Few clouds at a height of 3500 ft, Cumulonimbus.
Scattered clouds at a height of 4500 ft
thunderstorm

TAF: LQBK 202300Z 2100/2124 03004KT CAVOK TX25/2114Z TN11/2103Z PROB40 TEMPO 2114/2120 TS FEW035CB SCT045

Weather observations and forecasts of more than 4000 airports (METAR and TAF reports).

The available stations are represented by yellow and red dots on the map.

Hover mouse over dot to see the name of the station.

Then click to see weather observations and forecasts.

To change the map : click on the green buttons with a black cross to zoom in, on the green button with a dash to zoom out, or on the green arrows for adjacent maps.


METAR-TAF: